createdAt,value
2019-01-07T00:00:58.127Z,11.23
2019-01-07T00:03:59.850Z,10.80
2019-01-07T00:06:58.150Z,11.73
2019-01-07T00:09:28.796Z,10.87
2019-01-07T00:11:59.243Z,9.10
2019-01-07T00:14:29.704Z,10.10
2019-01-07T00:17:00.160Z,10.77
2019-01-07T00:19:30.611Z,10.37
2019-01-07T00:22:01.196Z,11.10
2019-01-07T00:24:31.625Z,11.27
2019-01-07T00:27:02.140Z,9.83
2019-01-07T00:29:32.554Z,8.57
2019-01-07T00:32:03.100Z,9.47
2019-01-07T00:34:33.548Z,10.73
2019-01-07T00:37:03.999Z,9.57
2019-01-07T00:39:34.462Z,9.83
2019-01-07T00:42:04.894Z,10.40
2019-01-07T00:44:35.384Z,10.40
2019-01-07T00:47:05.836Z,10.00
2019-01-07T00:49:36.229Z,9.37
2019-01-07T00:52:06.686Z,8.90
2019-01-07T00:54:37.124Z,9.67
2019-01-07T00:57:07.584Z,10.07
2019-01-07T00:59:38.015Z,9.70
2019-01-07T01:02:08.469Z,10.20
2019-01-07T01:04:38.913Z,9.53
2019-01-07T01:07:09.362Z,9.53
2019-01-07T01:09:39.775Z,8.77
2019-01-07T01:12:11.574Z,9.83
2019-01-07T01:14:42.050Z,9.53
2019-01-07T01:17:12.582Z,9.40
2019-01-07T01:19:43.059Z,8.60
2019-01-07T01:22:13.511Z,8.93
2019-01-07T01:24:43.994Z,9.77
2019-01-07T01:27:14.433Z,9.33
2019-01-07T01:29:44.916Z,8.50
2019-01-07T01:32:15.316Z,8.47
2019-01-07T01:34:45.880Z,9.40
2019-01-07T01:37:16.265Z,9.93
2019-01-07T01:39:46.727Z,9.40
2019-01-07T01:42:17.200Z,9.87
2019-01-07T01:44:47.719Z,9.37
2019-01-07T01:47:20.479Z,9.73
2019-01-07T01:49:50.892Z,9.83
2019-01-07T01:52:21.509Z,10.77
2019-01-07T01:54:52.036Z,11.07
2019-01-07T01:57:23.353Z,9.77
2019-01-07T01:59:53.813Z,9.23
2019-01-07T02:02:24.330Z,7.33
2019-01-07T02:04:54.774Z,8.90
2019-01-07T02:07:25.185Z,11.30
2019-01-07T02:09:55.596Z,10.77
2019-01-07T02:12:26.023Z,8.70
2019-01-07T02:14:56.431Z,10.67
2019-01-07T02:17:26.851Z,9.47
2019-01-07T02:19:57.294Z,10.10
2019-01-07T02:22:27.713Z,8.73
2019-01-07T02:24:58.346Z,9.63
2019-01-07T02:27:28.829Z,8.87
2019-01-07T02:29:59.261Z,10.10
2019-01-07T02:32:29.697Z,9.60
2019-01-07T02:35:00.579Z,8.40
2019-01-07T02:37:31.208Z,7.80
2019-01-07T02:40:01.610Z,9.30
2019-01-07T02:42:32.030Z,9.13
2019-01-07T02:45:02.493Z,10.57
2019-01-07T02:47:32.889Z,9.73
2019-01-07T02:50:03.409Z,9.10
2019-01-07T02:52:33.881Z,8.30
2019-01-07T02:55:04.360Z,10.00
2019-01-07T02:57:34.787Z,9.17
2019-01-07T03:00:05.952Z,9.70
2019-01-07T03:02:36.340Z,8.63
2019-01-07T03:05:07.070Z,10.30
2019-01-07T03:07:37.510Z,9.27
2019-01-07T03:10:08.244Z,10.10
2019-01-07T03:12:38.655Z,9.80
2019-01-07T03:15:09.066Z,9.97
2019-01-07T03:17:39.483Z,8.90
2019-01-07T03:20:09.935Z,9.27
2019-01-07T03:22:40.377Z,10.50
2019-01-07T03:25:10.780Z,9.90
2019-01-07T03:27:41.233Z,9.20
2019-01-07T03:30:15.464Z,10.70
2019-01-07T03:32:45.882Z,10.03
2019-01-07T03:35:16.304Z,9.63
2019-01-07T03:37:46.733Z,10.97
2019-01-07T03:40:17.173Z,10.00
2019-01-07T03:42:47.584Z,8.97
2019-01-07T03:45:18.006Z,10.60
2019-01-07T03:47:49.456Z,10.47
2019-01-07T03:50:19.975Z,10.97
2019-01-07T03:52:50.638Z,11.57
2019-01-07T03:55:21.053Z,9.83
2019-01-07T03:57:51.754Z,10.30
2019-01-07T04:00:22.207Z,9.97
2019-01-07T04:02:52.646Z,9.40
2019-01-07T04:05:23.116Z,11.10
2019-01-07T04:07:53.558Z,11.30
2019-01-07T04:10:24.053Z,11.37
2019-01-07T04:12:54.485Z,10.07
2019-01-07T04:15:24.911Z,10.30
2019-01-07T04:17:55.328Z,11.40
2019-01-07T04:20:25.746Z,9.60
2019-01-07T04:22:56.166Z,10.00
2019-01-07T04:25:26.791Z,10.97
2019-01-07T04:27:57.192Z,11.20
2019-01-07T04:30:27.612Z,11.03
2019-01-07T04:32:58.043Z,9.97
2019-01-07T04:35:28.492Z,11.40
2019-01-07T04:37:58.892Z,11.80
2019-01-07T04:40:29.304Z,10.60
2019-01-07T04:42:59.737Z,11.10
2019-01-07T04:45:30.192Z,10.67
2019-01-07T04:48:00.646Z,10.93
2019-01-07T04:50:31.179Z,11.30
2019-01-07T04:53:01.629Z,12.10
2019-01-07T04:56:25.772Z,10.60
2019-01-07T04:58:58.055Z,10.50
2019-01-07T05:01:28.498Z,10.57
2019-01-07T05:03:58.950Z,11.77
2019-01-07T05:06:29.638Z,11.37
2019-01-07T05:09:00.280Z,12.03
2019-01-07T05:11:30.710Z,10.73
2019-01-07T05:14:01.308Z,13.17
2019-01-07T05:16:31.740Z,12.40
2019-01-07T05:19:02.159Z,11.57
2019-01-07T05:21:32.595Z,10.87
2019-01-07T05:24:03.049Z,10.90
2019-01-07T05:26:33.464Z,11.43
2019-01-07T05:29:03.977Z,11.30
2019-01-07T05:31:34.406Z,11.70
2019-01-07T05:34:04.856Z,11.73
2019-01-07T05:36:35.266Z,12.67
2019-01-07T05:39:07.966Z,10.83
2019-01-07T05:41:38.413Z,10.40
2019-01-07T05:44:08.797Z,13.03
2019-01-07T05:46:39.234Z,11.20
2019-01-07T05:49:09.634Z,12.20
2019-01-07T05:51:40.134Z,12.70
2019-01-07T05:54:10.550Z,13.77
2019-01-07T05:56:55.164Z,12.20
2019-01-07T05:59:56.975Z,11.90
2019-01-07T06:03:11.949Z,12.03
2019-01-07T06:06:34.712Z,12.43
2019-01-07T06:09:53.284Z,11.57
2019-01-07T06:12:45.294Z,12.57
2019-01-07T06:15:39.188Z,12.43
2019-01-07T06:18:55.900Z,12.10
2019-01-07T06:21:43.432Z,12.23
2019-01-07T06:24:46.300Z,13.30
2019-01-07T06:27:16.732Z,13.30
2019-01-07T06:29:47.326Z,14.97
2019-01-07T06:32:17.747Z,15.43
2019-01-07T06:34:48.187Z,14.40
2019-01-07T06:37:18.607Z,14.07
2019-01-07T06:39:49.091Z,15.63
2019-01-07T06:42:19.700Z,14.63
2019-01-07T06:44:50.110Z,14.00
2019-01-07T06:47:20.550Z,14.97
2019-01-07T06:49:54.773Z,14.23
2019-01-07T06:52:25.713Z,14.93
2019-01-07T06:54:56.249Z,12.93
2019-01-07T06:57:26.770Z,14.60
2019-01-07T06:59:57.186Z,14.57
2019-01-07T07:02:27.606Z,14.30
2019-01-07T07:04:58.023Z,14.50
2019-01-07T07:07:28.869Z,13.67
2019-01-07T07:09:59.298Z,12.57
2019-01-07T07:12:29.711Z,11.67
2019-01-07T07:15:00.284Z,12.93
2019-01-07T07:17:31.020Z,14.10
2019-01-07T07:20:01.456Z,13.03
2019-01-07T07:22:31.886Z,12.17
2019-01-07T07:25:02.562Z,13.90
2019-01-07T07:27:33.007Z,13.07
2019-01-07T07:30:03.418Z,14.13
2019-01-07T07:32:34.044Z,14.10
2019-01-07T07:35:04.477Z,12.83
2019-01-07T07:37:34.890Z,13.43
2019-01-07T07:40:05.672Z,15.10
2019-01-07T07:42:36.217Z,11.53
2019-01-07T07:45:07.121Z,11.27
2019-01-07T07:47:37.537Z,12.03
2019-01-07T07:50:08.057Z,12.00
2019-01-07T07:52:39.157Z,11.27
2019-01-07T07:55:09.729Z,10.97
2019-01-07T07:57:47.237Z,10.90
2019-01-07T08:00:17.657Z,11.30
2019-01-07T08:02:50.266Z,11.43
2019-01-07T08:05:21.272Z,10.20
2019-01-07T08:07:53.559Z,10.33
2019-01-07T08:10:26.231Z,11.40
2019-01-07T08:13:17.799Z,9.50
2019-01-07T08:17:02.289Z,11.20
2019-01-07T08:20:27.892Z,10.30
2019-01-07T08:23:53.621Z,11.20
2019-01-07T08:27:22.853Z,10.07
2019-01-07T08:30:47.999Z,11.90
2019-01-07T08:34:24.049Z,10.67
2019-01-07T08:38:03.452Z,10.63
2019-01-07T08:41:41.996Z,10.90
2019-01-07T08:45:11.112Z,13.63
2019-01-07T08:49:09.300Z,18.20
2019-01-07T08:53:02.503Z,12.17
2019-01-07T08:56:51.911Z,11.10
2019-01-07T08:59:47.755Z,12.43
2019-01-07T09:02:57.025Z,11.20
2019-01-07T09:06:27.896Z,11.10
2019-01-07T09:09:56.367Z,11.23
2019-01-07T09:13:08.128Z,13.27
2019-01-07T09:16:41.377Z,12.03
2019-01-07T09:20:11.908Z,12.57
2019-01-07T09:23:49.426Z,12.50
2019-01-07T09:27:43.143Z,12.00
2019-01-07T09:31:30.489Z,11.60
2019-01-07T09:34:54.815Z,12.63
2019-01-07T09:38:21.612Z,11.67
2019-01-07T09:41:39.208Z,11.47
2019-01-07T09:45:13.744Z,13.00
2019-01-07T09:48:37.855Z,11.93
2019-01-07T09:52:06.280Z,12.37
2019-01-07T09:55:49.264Z,13.27
2019-01-07T09:59:15.944Z,12.37
2019-01-07T10:02:54.958Z,11.50
2019-01-07T10:06:20.395Z,11.00
2019-01-07T10:09:47.573Z,12.70
2019-01-07T10:13:31.579Z,10.97
2019-01-07T10:17:27.944Z,10.97
2019-01-07T10:21:10.587Z,11.70
2019-01-07T10:24:51.641Z,10.27
2019-01-07T10:28:09.506Z,11.50
2019-01-07T10:31:54.409Z,11.57
2019-01-07T10:34:55.191Z,10.63
2019-01-07T10:38:33.221Z,12.07
2019-01-07T10:41:44.121Z,9.63
2019-01-07T10:45:20.730Z,10.90
2019-01-07T10:48:23.793Z,9.30
2019-01-07T10:51:25.731Z,9.60
2019-01-07T10:54:33.773Z,10.70
2019-01-07T10:57:51.625Z,11.00
2019-01-07T11:00:34.987Z,10.33
2019-01-07T11:03:05.877Z,10.00
2019-01-07T11:05:36.327Z,11.10
2019-01-07T11:08:06.952Z,10.17
2019-01-07T11:10:37.668Z,9.47
2019-01-07T11:13:08.351Z,10.27
2019-01-07T11:15:39.509Z,9.87
2019-01-07T11:18:11.468Z,8.93
2019-01-07T11:20:42.123Z,10.73
2019-01-07T11:23:14.736Z,9.50
2019-01-07T11:25:45.363Z,8.07
2019-01-07T11:28:15.836Z,9.03
2019-01-07T11:30:49.042Z,8.20
2019-01-07T11:33:19.537Z,8.80
2019-01-07T11:35:49.961Z,9.17
2019-01-07T11:38:20.480Z,8.70
2019-01-07T11:40:51.226Z,8.60
2019-01-07T11:43:21.677Z,8.33
2019-01-07T11:45:52.905Z,7.60
2019-01-07T11:48:24.689Z,8.50
2019-01-07T11:50:55.737Z,7.37
2019-01-07T11:53:26.179Z,8.87
2019-01-07T11:55:56.873Z,8.20
2019-01-07T11:58:27.307Z,7.60
2019-01-07T12:01:01.294Z,8.20
2019-01-07T12:03:29.954Z,8.07
2019-01-07T12:06:00.397Z,7.80
2019-01-07T12:08:30.808Z,9.27
2019-01-07T12:11:01.285Z,8.23
2019-01-07T12:13:32.520Z,9.00
2019-01-07T12:16:16.290Z,8.47
2019-01-07T12:19:06.996Z,8.50
2019-01-07T12:22:45.551Z,8.13
2019-01-07T12:26:05.437Z,8.73
2019-01-07T12:29:12.481Z,6.90
2019-01-07T12:32:31.389Z,7.00
2019-01-07T12:36:12.600Z,6.20
2019-01-07T12:39:33.615Z,5.70
2019-01-07T12:43:09.954Z,7.40
2019-01-07T12:46:24.108Z,6.00
2019-01-07T12:49:17.374Z,6.20
2019-01-07T12:52:48.124Z,6.90
2019-01-07T12:56:12.154Z,6.00
2019-01-07T12:58:56.392Z,7.50
2019-01-07T13:01:26.793Z,7.23
2019-01-07T13:03:57.235Z,5.53
2019-01-07T13:06:27.642Z,6.67
2019-01-07T13:08:58.102Z,6.60
2019-01-07T13:11:28.540Z,6.57
2019-01-07T13:13:59.056Z,7.20
2019-01-07T13:16:29.781Z,7.20
2019-01-07T13:19:01.532Z,7.53
2019-01-07T13:21:32.080Z,6.23
2019-01-07T13:24:02.754Z,7.60
2019-01-07T13:26:33.510Z,6.67
2019-01-07T13:29:03.963Z,6.23
2019-01-07T13:31:38.675Z,6.03
2019-01-07T13:34:14.240Z,6.07
2019-01-07T13:36:56.178Z,5.87
2019-01-07T13:40:08.697Z,5.70
2019-01-07T13:43:43.076Z,5.10
2019-01-07T13:47:05.976Z,4.60
2019-01-07T13:50:26.343Z,5.10
2019-01-07T13:54:04.921Z,4.90
2019-01-07T13:57:41.840Z,4.77
2019-01-07T14:01:10.063Z,4.10
2019-01-07T14:05:01.542Z,5.03
2019-01-07T14:08:31.245Z,4.87
2019-01-07T14:12:07.030Z,4.63
2019-01-07T14:15:14.075Z,4.47
2019-01-07T14:18:47.389Z,4.57
2019-01-07T14:22:03.562Z,5.73
2019-01-07T14:25:18.427Z,4.90
2019-01-07T14:28:57.633Z,5.40
2019-01-07T14:32:47.876Z,5.80
2019-01-07T14:36:39.003Z,6.47
2019-01-07T14:40:07.596Z,5.33
2019-01-07T14:43:19.481Z,6.53
2019-01-07T14:47:01.881Z,6.30
2019-01-07T14:50:32.491Z,8.30
2019-01-07T14:53:58.827Z,9.03
2019-01-07T14:57:29.095Z,5.80
2019-01-07T15:00:54.850Z,6.90
2019-01-07T15:04:03.359Z,6.90
2019-01-07T15:07:29.898Z,5.63
2019-01-07T15:11:18.929Z,7.00
2019-01-07T15:15:12.478Z,7.20
2019-01-07T15:18:37.493Z,6.70
2019-01-07T15:21:48.941Z,7.13
2019-01-07T15:25:05.906Z,6.30
2019-01-07T15:28:14.173Z,6.50
2019-01-07T15:31:35.290Z,7.40
2019-01-07T15:34:48.300Z,6.73
2019-01-07T15:38:12.992Z,7.23
2019-01-07T15:41:33.065Z,6.50
2019-01-07T15:45:15.984Z,7.30
2019-01-07T15:48:41.474Z,7.23
2019-01-07T15:51:51.068Z,7.60
2019-01-07T15:55:28.581Z,7.67
2019-01-07T15:58:49.071Z,8.87
2019-01-07T16:02:30.197Z,9.70
2019-01-07T16:05:40.078Z,9.20
2019-01-07T16:08:49.213Z,10.07
2019-01-07T16:12:13.584Z,11.20
2019-01-07T16:15:46.077Z,9.77
2019-01-07T16:19:12.583Z,9.40
2019-01-07T16:22:21.994Z,11.20
2019-01-07T16:25:29.315Z,9.47
2019-01-07T16:29:05.286Z,8.37
2019-01-07T16:32:25.334Z,9.40
2019-01-07T16:35:43.877Z,8.57
2019-01-07T16:39:27.773Z,8.80
2019-01-07T16:42:52.180Z,9.90
2019-01-07T16:46:21.063Z,10.07
2019-01-07T16:50:03.759Z,10.57
2019-01-07T16:53:15.030Z,10.50
2019-01-07T16:56:59.834Z,11.10
2019-01-07T17:00:37.815Z,10.80
2019-01-07T17:03:59.743Z,8.13
2019-01-07T17:07:19.208Z,9.33
2019-01-07T17:10:51.336Z,10.73
2019-01-07T17:14:04.731Z,10.43
2019-01-07T17:17:38.952Z,9.90
2019-01-07T17:21:28.510Z,32.67
2019-01-07T17:24:50.569Z,9.90
2019-01-07T17:28:05.869Z,13.30
2019-01-07T17:31:51.506Z,19.13
2019-01-07T17:35:08.887Z,10.57
2019-01-07T17:38:51.611Z,8.37
2019-01-07T17:42:33.778Z,9.60
2019-01-07T17:45:24.329Z,8.97
2019-01-07T17:48:32.537Z,10.97
2019-01-07T17:51:43.725Z,9.20
2019-01-07T17:55:15.237Z,9.27
2019-01-07T17:58:31.970Z,8.87
2019-01-07T18:02:44.959Z,8.73
2019-01-07T18:06:08.619Z,11.63
2019-01-07T18:09:17.756Z,11.47
2019-01-07T18:12:42.339Z,9.50
2019-01-07T18:16:09.308Z,8.40
2019-01-07T18:19:31.012Z,8.63
2019-01-07T18:22:55.443Z,9.57
2019-01-07T18:26:09.352Z,9.47
2019-01-07T18:29:33.060Z,12.40
2019-01-07T18:32:40.668Z,9.90
2019-01-07T18:36:29.065Z,8.97
2019-01-07T18:39:37.792Z,9.17
2019-01-07T18:42:56.701Z,9.23
2019-01-07T18:46:42.255Z,10.20
2019-01-07T18:50:02.154Z,10.17
2019-01-07T18:53:48.246Z,7.43
2019-01-07T18:57:30.242Z,8.17
2019-01-07T19:00:52.257Z,8.50
2019-01-07T19:04:21.468Z,11.73
2019-01-07T19:07:51.698Z,9.40
2019-01-07T19:11:15.612Z,10.27
2019-01-07T19:14:42.498Z,10.57
2019-01-07T19:17:51.625Z,15.43
2019-01-07T19:21:20.709Z,17.13
2019-01-07T19:25:02.476Z,11.40
2019-01-07T19:28:30.867Z,12.90
2019-01-07T19:32:05.147Z,19.03
2019-01-07T19:35:25.339Z,9.73
2019-01-07T19:39:19.961Z,8.50
2019-01-07T19:42:44.791Z,10.03
2019-01-07T19:46:06.152Z,11.10
2019-01-07T19:49:45.222Z,10.10
2019-01-07T19:53:20.605Z,10.20
2019-01-07T19:56:48.168Z,11.47
2019-01-07T20:00:09.410Z,12.33
2019-01-07T20:03:35.721Z,11.70
2019-01-07T20:06:49.825Z,11.40
2019-01-07T20:10:28.287Z,13.37
2019-01-07T20:14:03.489Z,9.77
2019-01-07T20:17:20.574Z,11.00
2019-01-07T20:20:29.066Z,11.87
2019-01-07T20:24:13.362Z,12.63
2019-01-07T20:27:43.400Z,12.73
2019-01-07T20:31:53.376Z,13.20
2019-01-07T20:35:29.700Z,13.07
2019-01-07T20:38:59.651Z,12.70
2019-01-07T20:42:25.392Z,14.13
2019-01-07T20:45:31.531Z,14.10
2019-01-07T20:48:56.621Z,12.03
2019-01-07T20:52:36.999Z,12.93
2019-01-07T20:56:25.882Z,13.17
2019-01-07T20:59:47.001Z,14.90
2019-01-07T21:03:14.899Z,14.57
2019-01-07T21:06:58.413Z,13.53
2019-01-07T21:10:16.754Z,16.00
2019-01-07T21:13:45.682Z,14.70
2019-01-07T21:17:30.024Z,13.57
2019-01-07T21:21:00.472Z,15.13
2019-01-07T21:24:31.633Z,16.43
2019-01-07T21:27:52.934Z,16.17
2019-01-07T21:31:35.146Z,15.07
2019-01-07T21:34:58.017Z,16.60
2019-01-07T21:38:30.430Z,16.00
2019-01-07T21:42:12.228Z,16.00
2019-01-07T21:45:53.863Z,14.93
2019-01-07T21:49:30.641Z,16.53
2019-01-07T21:52:47.394Z,15.17
2019-01-07T21:56:11.898Z,15.67
2019-01-07T21:59:59.724Z,14.47
2019-01-07T22:03:19.088Z,13.43
2019-01-07T22:07:10.010Z,13.00
2019-01-07T22:10:33.567Z,12.33
2019-01-07T22:14:22.536Z,13.97
2019-01-07T22:17:28.990Z,10.70
2019-01-07T22:20:38.321Z,12.57
2019-01-07T22:23:56.393Z,12.03
2019-01-07T22:27:06.565Z,10.50
2019-01-07T22:30:29.848Z,10.00
2019-01-07T22:34:04.022Z,9.67
2019-01-07T22:36:59.131Z,9.07
2019-01-07T22:40:35.287Z,8.80
2019-01-07T22:44:01.408Z,7.67
2019-01-07T22:48:11.270Z,9.40
2019-01-07T22:51:22.190Z,9.13
2019-01-07T22:55:05.336Z,7.00
2019-01-07T22:58:23.777Z,8.63
2019-01-07T23:01:49.243Z,7.93
2019-01-07T23:05:16.128Z,6.27
2019-01-07T23:08:37.757Z,6.27
2019-01-07T23:12:02.027Z,7.10
2019-01-07T23:15:25.673Z,6.90
2019-01-07T23:19:06.307Z,6.93
2019-01-07T23:21:37.681Z,7.70
2019-01-07T23:24:08.163Z,6.53
2019-01-07T23:26:38.629Z,7.57
2019-01-07T23:29:09.047Z,7.30
2019-01-07T23:31:39.516Z,6.80
2019-01-07T23:34:10.027Z,7.00
2019-01-07T23:36:40.430Z,6.63
2019-01-07T23:39:10.981Z,7.17
2019-01-07T23:41:41.417Z,6.93
2019-01-07T23:44:12.094Z,6.70
2019-01-07T23:46:42.520Z,5.47
2019-01-07T23:49:12.920Z,6.10
2019-01-07T23:51:43.321Z,5.97
2019-01-07T23:54:13.826Z,6.23
2019-01-07T23:56:44.233Z,6.00
2019-01-07T23:59:14.712Z,6.33
